Time;durP1;ratioP1;P1;durP2;ratioP2;P2;SDS_P1;SDS_P2;PMS_P1;PMS_P2;Temp;Humidity;BMP_temperature;BMP_pressure;BME280_temperature;BME280_humidity;BME280_pressure;Samples;Min_cycle;Max_cycle;Signal;HPM_P1;HPM_P2
2022/03/21 00:00:53;;;;;;;3.90;3.67;;;26.20;43.50;;;;;;4977677;28;20456;-81
2022/03/21 00:03:21;;;;;;;4.00;3.70;;;26.20;43.50;;;;;;4977160;28;20425;-82
2022/03/21 00:05:48;;;;;;;3.30;3.10;;;26.20;43.50;;;;;;4977294;28;20449;-81
2022/03/21 00:08:17;;;;;;;4.13;3.83;;;26.20;43.50;;;;;;4977229;28;20441;-80
2022/03/21 00:10:46;;;;;;;4.20;3.90;;;26.10;43.50;;;;;;4977174;28;20445;-83
2022/03/21 00:13:15;;;;;;;4.50;4.10;;;26.10;43.50;;;;;;4977387;28;20445;-83
2022/03/21 00:15:43;;;;;;;3.53;3.33;;;26.10;43.50;;;;;;4977394;28;20449;-84
2022/03/21 00:18:13;;;;;;;4.07;3.77;;;26.10;43.40;;;;;;4976797;28;20449;-83
2022/03/21 00:20:41;;;;;;;4.20;3.90;;;26.10;43.50;;;;;;4977145;28;20440;-83
2022/03/21 00:23:09;;;;;;;3.83;3.63;;;26.10;43.50;;;;;;4976996;28;20449;-83
2022/03/21 00:25:35;;;;;;;3.90;3.60;;;26.10;43.40;;;;;;4977170;28;20490;-83
2022/03/21 00:28:04;;;;;;;4.20;3.90;;;26.00;43.50;;;;;;4976959;28;20455;-83
2022/03/21 00:30:32;;;;;;;3.50;3.30;;;26.10;43.50;;;;;;4976691;28;20445;-83
2022/03/21 00:32:59;;;;;;;3.43;3.23;;;26.10;43.50;;;;;;4976176;28;20453;-89
2022/03/21 00:35:25;;;;;;;3.60;3.40;;;26.00;43.60;;;;;;4976798;28;20457;-83
2022/03/21 00:37:52;;;;;;;3.40;3.20;;;26.00;43.60;;;;;;4976712;28;20447;-83
2022/03/21 00:40:19;;;;;;;3.57;3.27;;;26.00;43.50;;;;;;4976748;28;20445;-83
2022/03/21 00:42:47;;;;;;;4.17;3.87;;;26.10;43.50;;;;;;4976300;28;20450;-83
2022/03/21 00:45:18;;;;;;;4.40;4.00;;;26.00;43.50;;;;;;4976645;28;20472;-88
2022/03/21 00:47:45;;;;;;;4.40;4.07;;;26.00;43.50;;;;;;4976456;28;20485;-83
2022/03/21 00:50:14;;;;;;;3.67;3.37;;;26.00;43.50;;;;;;4976263;28;20935;-86
2022/03/21 00:52:43;;;;;;;4.53;4.23;;;26.00;43.40;;;;;;4976409;28;20628;-83
2022/03/21 00:55:11;;;;;;;3.53;3.30;;;26.00;43.40;;;;;;4976404;28;20461;-89
2022/03/21 00:57:40;;;;;;;4.00;3.70;;;25.90;43.60;;;;;;4976919;28;20441;-83
2022/03/21 01:00:09;;;;;;;4.03;3.73;;;25.90;43.60;;;;;;4976343;28;20441;-83
2022/03/21 01:02:38;;;;;;;4.30;3.97;;;26.00;43.50;;;;;;4975983;28;20449;-88
2022/03/21 01:05:05;;;;;;;3.80;3.50;;;26.00;43.60;;;;;;4975909;28;20441;-83
2022/03/21 01:07:32;;;;;;;3.53;3.23;;;25.90;43.50;;;;;;4976476;28;20446;-83
2022/03/21 01:13:21;;;;;;;3.77;3.47;;;25.90;43.50;;;;;;4975887;28;20448;-88
2022/03/21 01:15:48;;;;;;;3.67;3.40;;;25.90;43.60;;;;;;4976107;28;20496;-88
2022/03/21 01:18:16;;;;;;;3.40;3.20;;;25.80;43.70;;;;;;4976023;28;20464;-83
2022/03/21 01:20:43;;;;;;;3.80;3.50;;;25.80;43.60;;;;;;4975953;28;20441;-89
2022/03/21 01:23:10;;;;;;;3.70;3.40;;;25.80;43.50;;;;;;4975912;28;20449;-83
2022/03/21 01:25:36;;;;;;;3.80;3.53;;;25.90;43.60;;;;;;4975916;28;20520;-87
2022/03/21 01:28:03;;;;;;;3.60;3.30;;;25.80;43.60;;;;;;4975840;28;20449;-83
2022/03/21 01:30:30;;;;;;;3.63;3.33;;;25.80;43.60;;;;;;4975871;28;20559;-83
2022/03/21 01:32:57;;;;;;;4.07;3.77;;;25.70;43.70;;;;;;4975662;28;20484;-83
2022/03/21 01:35:25;;;;;;;3.40;3.13;;;25.70;43.60;;;;;;4975687;28;20445;-83
2022/03/21 01:37:52;;;;;;;3.43;3.13;;;25.80;43.60;;;;;;4975689;28;20441;-84
2022/03/21 01:40:19;;;;;;;3.43;3.23;;;25.70;43.60;;;;;;4975625;28;20449;-83
2022/03/21 01:42:47;;;;;;;3.60;3.40;;;25.70;43.70;;;;;;4974955;28;20453;-83
2022/03/21 01:45:20;;;;;;;3.87;3.57;;;25.70;43.70;;;;;;4975372;28;20933;-83
2022/03/21 01:47:47;;;;;;;3.30;3.10;;;25.70;43.60;;;;;;4975266;28;20560;-83
2022/03/21 01:50:15;;;;;;;3.10;2.90;;;25.70;43.70;;;;;;4975589;28;20437;-83
2022/03/21 01:52:44;;;;;;;3.40;3.20;;;25.70;43.70;;;;;;4975387;28;20484;-84
2022/03/21 01:57:58;;;;;;;3.87;3.60;;;25.70;43.60;;;;;;4975117;28;20408;-83
2022/03/21 02:00:24;;;;;;;4.13;3.83;;;25.70;43.60;;;;;;4975280;28;20449;-83
2022/03/21 02:02:51;;;;;;;5.80;3.50;;;25.60;43.60;;;;;;4975473;28;20457;-84
2022/03/21 02:05:18;;;;;;;3.50;3.30;;;25.60;43.70;;;;;;4975250;28;20442;-83
2022/03/21 02:07:47;;;;;;;3.10;2.90;;;25.60;43.60;;;;;;4975215;28;20983;-86
2022/03/21 02:10:13;;;;;;;3.30;3.00;;;25.60;43.60;;;;;;4974800;28;20937;-83
2022/03/21 02:12:41;;;;;;;4.10;3.80;;;25.70;43.70;;;;;;4974750;28;20480;-83
2022/03/21 02:15:09;;;;;;;3.70;3.40;;;25.60;43.70;;;;;;4975373;28;20457;-83
2022/03/21 02:17:39;;;;;;;3.10;2.90;;;25.70;43.70;;;;;;4974801;28;20456;-83
2022/03/21 02:20:07;;;;;;;3.33;3.13;;;25.70;43.70;;;;;;4975679;28;20434;-83
2022/03/21 02:22:40;;;;;;;2.90;2.70;;;25.70;43.60;;;;;;4974961;28;20442;-83
2022/03/21 02:25:29;;;;;;;3.03;2.83;;;25.70;43.60;;;;;;4975040;28;20437;-83
2022/03/21 02:27:59;;;;;;;3.50;3.30;;;25.70;43.70;;;;;;4975242;28;20484;-83
2022/03/21 02:30:27;;;;;;;4.00;3.70;;;25.60;43.70;;;;;;4974906;28;20449;-82
2022/03/21 02:32:55;;;;;;;3.00;2.80;;;25.60;43.70;;;;;;4974834;28;20488;-83
2022/03/21 02:35:23;;;;;;;3.27;3.07;;;25.50;43.70;;;;;;4974784;28;20458;-82
2022/03/21 02:37:51;;;;;;;3.90;3.60;;;25.60;43.80;;;;;;4974554;28;20452;-82
2022/03/21 02:40:18;;;;;;;3.13;2.93;;;25.60;43.80;;;;;;4974844;28;20444;-87
2022/03/21 02:42:46;;;;;;;3.47;3.17;;;25.60;43.70;;;;;;4974497;28;20449;-81
2022/03/21 02:45:13;;;;;;;2.80;2.60;;;25.50;43.70;;;;;;4975024;28;20441;-81
2022/03/21 02:47:40;;;;;;;3.17;2.97;;;25.50;43.70;;;;;;4974524;28;20807;-81
2022/03/21 02:50:09;;;;;;;3.20;3.00;;;25.60;43.70;;;;;;4974798;28;20433;-81
2022/03/21 02:52:39;;;;;;;3.07;2.87;;;25.50;43.60;;;;;;4974675;28;20609;-81
2022/03/21 02:55:06;;;;;;;3.73;3.50;;;25.50;43.70;;;;;;4976441;28;20448;-81
2022/03/21 02:57:33;;;;;;;3.57;3.27;;;25.50;43.70;;;;;;4978795;28;20445;-82
2022/03/21 03:03:23;;;;;;;2.97;2.77;;;25.50;43.70;;;;;;4978602;28;20405;-82
2022/03/21 03:05:50;;;;;;;3.30;3.10;;;25.50;43.80;;;;;;4978477;28;20452;-85
2022/03/21 03:08:16;;;;;;;3.10;2.90;;;25.50;43.70;;;;;;4978390;28;20464;-82
2022/03/21 03:10:43;;;;;;;2.97;2.77;;;25.50;43.70;;;;;;4978094;28;20947;-82
2022/03/21 03:13:10;;;;;;;3.10;2.80;;;25.50;43.70;;;;;;4978178;28;20995;-81
2022/03/21 03:15:37;;;;;;;3.20;3.00;;;25.50;43.70;;;;;;4978108;28;20962;-82
2022/03/21 03:18:04;;;;;;;2.93;2.77;;;25.50;43.70;;;;;;4977882;28;20543;-82
2022/03/21 03:20:33;;;;;;;3.73;3.43;;;25.50;43.70;;;;;;4978087;28;20952;-82
2022/03/21 03:23:02;;;;;;;2.80;2.60;;;25.50;43.80;;;;;;4978175;28;20452;-82
2022/03/21 03:25:29;;;;;;;3.10;2.90;;;25.50;43.80;;;;;;4978050;28;20449;-82
2022/03/21 03:27:57;;;;;;;3.20;3.00;;;25.40;43.70;;;;;;4978053;28;20445;-82
2022/03/21 03:30:24;;;;;;;3.97;3.20;;;25.50;43.80;;;;;;4977983;28;20506;-82
2022/03/21 03:32:51;;;;;;;3.10;2.90;;;25.60;43.80;;;;;;4977856;28;20492;-87
2022/03/21 03:35:18;;;;;;;3.60;3.30;;;25.40;43.70;;;;;;4977862;28;20496;-82
2022/03/21 03:37:46;;;;;;;3.07;2.87;;;25.50;43.70;;;;;;4977800;28;20449;-82
2022/03/21 03:40:14;;;;;;;3.37;3.17;;;25.40;43.70;;;;;;4977794;28;20480;-81
2022/03/21 03:42:40;;;;;;;3.50;3.20;;;25.40;43.80;;;;;;4977467;28;20944;-82
2022/03/21 03:45:08;;;;;;;2.87;2.67;;;25.50;43.80;;;;;;4977438;28;21011;-82
2022/03/21 03:47:35;;;;;;;4.20;3.80;;;25.40;43.70;;;;;;4977210;28;20445;-81
2022/03/21 03:50:02;;;;;;;3.23;3.03;;;25.40;43.80;;;;;;4977451;28;20433;-82
2022/03/21 03:52:29;;;;;;;2.97;2.77;;;25.40;43.70;;;;;;4977573;28;20601;-82
2022/03/21 03:54:57;;;;;;;3.03;2.83;;;25.40;43.70;;;;;;4977187;28;20448;-82
2022/03/21 03:57:24;;;;;;;3.43;3.23;;;25.40;43.80;;;;;;4977699;28;20449;-82
2022/03/21 03:59:50;;;;;;;3.60;3.40;;;25.30;43.70;;;;;;4977417;28;20453;-86
2022/03/21 04:02:17;;;;;;;3.70;3.40;;;25.40;43.80;;;;;;4977465;28;20442;-82
2022/03/21 04:04:44;;;;;;;3.17;2.97;;;25.30;43.70;;;;;;4977404;28;20445;-85
2022/03/21 04:07:11;;;;;;;4.67;3.47;;;25.30;43.70;;;;;;4976850;28;20446;-81
2022/03/21 04:09:38;;;;;;;3.30;3.10;;;25.30;43.80;;;;;;4977160;28;20932;-81
2022/03/21 04:12:07;;;;;;;3.50;3.20;;;25.40;43.80;;;;;;4977061;28;20492;-86
2022/03/21 04:14:33;;;;;;;3.50;3.20;;;25.30;43.70;;;;;;4976884;28;20453;-87
2022/03/21 04:20:23;;;;;;;3.47;3.17;;;25.30;43.70;;;;;;4977367;28;20453;-88
2022/03/21 04:22:50;;;;;;;2.73;2.53;;;25.30;43.90;;;;;;4977151;28;20445;-87
2022/03/21 04:25:17;;;;;;;3.47;3.17;;;25.30;43.80;;;;;;4976703;28;20500;-85
2022/03/21 04:27:45;;;;;;;2.83;2.63;;;25.30;43.80;;;;;;4977177;28;20445;-82
2022/03/21 04:30:12;;;;;;;3.50;3.30;;;25.30;43.80;;;;;;4976568;28;20449;-81
2022/03/21 04:32:39;;;;;;;3.20;3.00;;;25.20;43.80;;;;;;4976716;28;20504;-82
2022/03/21 04:35:07;;;;;;;3.20;3.00;;;25.20;44.40;;;;;;4976764;28;20441;-81
2022/03/21 04:37:34;;;;;;;2.80;2.60;;;25.20;43.70;;;;;;4976701;28;20457;-81
2022/03/21 04:40:00;;;;;;;3.33;3.10;;;25.20;43.80;;;;;;4976390;28;20449;-81
2022/03/21 04:42:27;;;;;;;3.27;3.07;;;25.20;43.70;;;;;;4976606;28;20460;-81
2022/03/21 04:44:55;;;;;;;3.40;3.10;;;25.20;43.80;;;;;;4976568;28;20838;-81
2022/03/21 04:47:22;;;;;;;3.33;3.13;;;25.20;43.80;;;;;;4976473;28;20441;-87
2022/03/21 04:49:49;;;;;;;3.93;3.30;;;25.10;43.80;;;;;;4976395;28;20469;-88
2022/03/21 04:52:16;;;;;;;2.90;2.70;;;25.10;43.80;;;;;;4976674;28;20485;-88
2022/03/21 04:54:44;;;;;;;3.73;3.43;;;25.20;43.80;;;;;;4976477;28;20454;-82
2022/03/21 04:57:12;;;;;;;3.20;3.00;;;25.10;43.80;;;;;;4976468;28;20445;-82
2022/03/21 04:59:39;;;;;;;3.27;3.07;;;25.10;43.80;;;;;;4976245;28;20452;-82
2022/03/21 05:02:16;;;;;;;3.13;2.93;;;25.20;43.90;;;;;;4976216;28;20815;-89
2022/03/21 05:04:43;;;;;;;3.30;3.10;;;25.10;43.80;;;;;;4976070;28;20469;-86
2022/03/21 05:07:13;;;;;;;3.40;3.20;;;25.10;43.80;;;;;;4976159;28;20450;-82
2022/03/21 05:09:41;;;;;;;3.03;2.83;;;25.20;43.80;;;;;;4975983;28;20931;-81
2022/03/21 05:12:09;;;;;;;3.20;3.00;;;25.20;43.80;;;;;;4976016;28;20858;-81
2022/03/21 05:14:35;;;;;;;3.87;3.57;;;25.20;43.70;;;;;;4975752;28;20449;-86
2022/03/21 05:17:03;;;;;;;3.30;3.10;;;25.20;43.70;;;;;;4975534;28;20467;-82
2022/03/21 05:19:32;;;;;;;3.37;3.17;;;25.20;43.70;;;;;;4975727;28;20605;-81
2022/03/21 05:21:59;;;;;;;3.43;3.23;;;25.30;43.70;;;;;;4975628;28;20452;-81
2022/03/21 05:36:01;;;;;;;3.00;2.80;;;25.30;43.70;;;;;;4975822;28;20756;-81
2022/03/21 05:38:30;;;;;;;3.50;3.20;;;25.30;43.70;;;;;;4975694;28;20452;-86
2022/03/21 05:40:59;;;;;;;3.30;3.10;;;25.40;43.70;;;;;;4975304;28;20959;-86
2022/03/21 05:43:27;;;;;;;3.57;3.30;;;25.40;43.70;;;;;;4975274;28;20453;-83
2022/03/21 05:45:53;;;;;;;3.20;3.00;;;25.40;43.60;;;;;;4975500;28;20468;-83
2022/03/21 05:51:06;;;;;;;3.73;3.43;;;25.50;43.60;;;;;;4975497;28;20761;-86
2022/03/21 05:53:33;;;;;;;3.30;3.10;;;25.50;43.60;;;;;;4974990;28;20497;-82
2022/03/21 05:56:01;;;;;;;3.80;3.50;;;25.50;43.60;;;;;;4975295;28;20441;-84
2022/03/21 05:58:28;;;;;;;3.93;3.63;;;25.50;43.50;;;;;;4975278;28;20503;-83
2022/03/21 06:00:55;;;;;;;3.97;3.60;;;25.50;43.40;;;;;;4975147;28;20471;-83
2022/03/21 06:03:22;;;;;;;3.20;3.00;;;25.60;43.40;;;;;;4975454;28;20442;-82
2022/03/21 06:05:49;;;;;;;3.20;3.00;;;25.60;43.40;;;;;;4975469;28;20452;-87
2022/03/21 06:08:17;;;;;;;3.90;3.60;;;25.60;43.30;;;;;;4975184;28;20454;-85
2022/03/21 06:10:44;;;;;;;3.17;2.97;;;25.70;43.40;;;;;;4974855;28;20453;-86
2022/03/21 06:13:11;;;;;;;3.00;2.80;;;25.60;43.30;;;;;;4974718;28;21051;-85
2022/03/21 06:15:39;;;;;;;3.60;3.30;;;25.70;44.00;;;;;;4975147;28;20933;-82
2022/03/21 06:18:10;;;;;;;3.40;3.10;;;25.70;43.40;;;;;;4974989;28;20464;-82
2022/03/21 06:20:39;;;;;;;2.90;2.70;;;25.70;43.40;;;;;;4974517;28;20438;-87
2022/03/21 06:23:06;;;;;;;3.27;3.07;;;25.70;43.40;;;;;;4974814;28;20865;-83
2022/03/21 06:25:36;;;;;;;3.10;2.90;;;25.70;43.30;;;;;;4974742;28;20520;-82
2022/03/21 06:28:02;;;;;;;3.50;3.20;;;25.70;43.30;;;;;;4974799;28;20525;-82
2022/03/21 06:30:29;;;;;;;4.00;3.70;;;25.70;43.30;;;;;;4973592;28;20450;-85
2022/03/21 06:32:56;;;;;;;3.93;3.63;;;25.70;43.40;;;;;;4975117;28;20480;-81
2022/03/21 06:35:23;;;;;;;3.50;3.30;;;25.70;43.60;;;;;;4974699;28;20456;-82
2022/03/21 06:37:50;;;;;;;4.07;3.70;;;25.70;43.60;;;;;;4974468;28;20971;-82
2022/03/21 06:40:17;;;;;;;4.10;3.80;;;25.90;43.50;;;;;;4974864;28;20457;-86
2022/03/21 06:42:45;;;;;;;3.47;3.17;;;25.80;43.50;;;;;;4974775;28;20449;-83
2022/03/21 06:45:12;;;;;;;4.60;3.97;;;25.90;43.50;;;;;;4974614;28;20453;-84
2022/03/21 06:47:38;;;;;;;5.17;3.90;;;25.90;43.60;;;;;;4974291;28;20451;-84
2022/03/21 06:50:06;;;;;;;7.10;3.57;;;26.20;43.70;;;;;;4974598;28;20447;-83
2022/03/21 06:52:39;;;;;;;4.30;4.00;;;26.00;43.50;;;;;;4974670;28;20960;-83
2022/03/21 06:55:06;;;;;;;5.33;3.60;;;26.10;43.50;;;;;;4974319;28;20998;-83
2022/03/21 06:57:33;;;;;;;4.80;4.50;;;26.10;43.50;;;;;;4974608;28;20445;-89
2022/03/21 07:00:02;;;;;;;5.00;4.47;;;26.20;43.60;;;;;;4975101;28;20885;-84
2022/03/21 07:02:29;;;;;;;4.10;3.80;;;26.20;43.60;;;;;;4974146;28;20450;-84
2022/03/21 07:04:57;;;;;;;4.50;4.20;;;26.20;43.70;;;;;;4974255;28;20457;-83
2022/03/21 07:07:24;;;;;;;4.87;4.50;;;26.20;43.70;;;;;;4974352;28;20812;-83
2022/03/21 07:09:51;;;;;;;4.50;3.77;;;26.30;43.70;;;;;;4974350;28;20461;-93
2022/03/21 07:12:19;;;;;;;4.43;4.13;;;26.30;43.80;;;;;;4974499;28;20445;-94
2022/03/21 07:14:46;;;;;;;4.87;4.57;;;26.30;43.70;;;;;;4974389;28;20535;-84
2022/03/21 07:17:17;;;;;;;4.83;4.43;;;26.30;43.70;;;;;;4974404;28;20452;-94
2022/03/21 07:23:06;;;;;;;4.97;4.53;;;26.40;43.80;;;;;;4974202;28;20437;-84
2022/03/21 07:25:32;;;;;;;4.67;4.27;;;26.40;43.80;;;;;;4974327;28;20460;-85
2022/03/21 07:27:59;;;;;;;4.90;4.53;;;26.40;43.90;;;;;;4974269;28;20815;-85
2022/03/21 07:30:26;;;;;;;4.10;3.80;;;26.40;43.80;;;;;;4974188;28;20449;-84
2022/03/21 07:32:54;;;;;;;4.93;4.63;;;26.50;43.80;;;;;;4973878;28;20463;-84
2022/03/21 07:35:21;;;;;;;5.00;4.70;;;26.50;43.80;;;;;;4973991;28;20445;-84
2022/03/21 07:37:50;;;;;;;3.93;3.63;;;26.50;43.80;;;;;;4974094;28;20772;-85
2022/03/21 07:40:18;;;;;;;4.73;4.43;;;26.60;43.90;;;;;;4974333;28;20446;-84
2022/03/21 07:42:47;;;;;;;4.83;4.53;;;26.60;43.90;;;;;;4977578;28;20507;-84
2022/03/21 07:48:01;;;;;;;4.80;4.40;;;26.60;43.80;;;;;;4977403;28;20608;-82
2022/03/21 07:50:29;;;;;;;5.00;4.60;;;26.60;43.80;;;;;;4977559;28;20775;-81
2022/03/21 07:52:58;;;;;;;6.63;5.93;;;26.60;43.90;;;;;;4977346;28;20441;-80
2022/03/21 07:55:25;;;;;;;5.27;4.87;;;26.60;44.10;;;;;;4977440;28;20449;-84
2022/03/21 07:57:51;;;;;;;4.43;3.57;;;26.60;44.00;;;;;;4977210;28;20457;-84
2022/03/21 08:00:18;;;;;;;3.93;3.63;;;26.60;44.00;;;;;;4977349;28;20446;-84
2022/03/21 08:02:45;;;;;;;4.17;3.50;;;26.90;44.10;;;;;;4977324;28;20445;-84
2022/03/21 08:05:14;;;;;;;3.67;3.37;;;27.00;44.00;;;;;;4977320;28;20450;-94
2022/03/21 08:07:41;;;;;;;4.27;3.93;;;26.80;43.90;;;;;;4977622;28;20487;-84
2022/03/21 08:10:08;;;;;;;3.90;3.50;;;26.90;43.80;;;;;;4977157;28;20452;-84
2022/03/21 08:12:36;;;;;;;4.03;3.73;;;26.90;43.60;;;;;;4977106;28;20449;-84
2022/03/21 08:15:04;;;;;;;3.10;2.90;;;27.00;43.50;;;;;;4976734;28;20528;-84
2022/03/21 08:17:31;;;;;;;4.23;3.93;;;27.10;43.50;;;;;;4977133;28;20874;-87
2022/03/21 08:19:58;;;;;;;5.70;5.30;;;27.30;43.50;;;;;;4977015;28;20453;-84
2022/03/21 08:22:27;;;;;;;4.83;4.43;;;27.10;43.60;;;;;;4976801;28;20509;-83
2022/03/21 08:24:54;;;;;;;5.37;4.97;;;27.10;43.60;;;;;;4976837;28;20504;-85
2022/03/21 08:27:21;;;;;;;4.50;4.10;;;27.10;43.50;;;;;;4976752;28;20446;-81
2022/03/21 08:29:48;;;;;;;3.60;3.33;;;27.20;43.50;;;;;;4977086;28;20446;-83
2022/03/21 08:51:20;;;;;;;4.50;4.20;;;27.20;42.70;;;;;;4842780;29;20439;-86
2022/03/21 08:53:48;;;;;;;3.27;2.93;;;27.20;42.90;;;;;;4887745;29;20492;-86
2022/03/21 08:56:15;;;;;;;3.43;3.10;;;27.30;43.40;;;;;;4897771;29;20457;-84
2022/03/21 08:58:42;;;;;;;3.60;3.30;;;27.40;43.40;;;;;;4897522;29;20444;-86
2022/03/21 09:01:08;;;;;;;3.60;3.40;;;27.50;43.40;;;;;;4897759;29;20449;-84
2022/03/21 09:03:36;;;;;;;3.90;3.60;;;27.60;43.40;;;;;;4897469;29;20448;-84
2022/03/21 09:06:03;;;;;;;3.90;3.60;;;27.60;43.40;;;;;;4897826;29;20464;-85
2022/03/21 09:08:30;;;;;;;3.17;2.97;;;27.70;43.50;;;;;;4897518;29;20453;-87
2022/03/21 09:10:57;;;;;;;3.70;3.40;;;27.80;43.50;;;;;;4897498;29;20983;-88
2022/03/21 09:13:23;;;;;;;4.03;3.43;;;27.80;43.50;;;;;;4936747;29;20455;-85
2022/03/21 09:15:51;;;;;;;3.57;3.30;;;27.90;43.60;;;;;;4937524;29;20778;-87
2022/03/21 09:18:17;;;;;;;3.50;3.30;;;27.90;43.60;;;;;;4937421;29;20498;-88
2022/03/21 09:20:45;;;;;;;3.40;3.20;;;27.90;43.60;;;;;;4937022;29;20451;-87
2022/03/21 09:23:12;;;;;;;3.80;3.50;;;28.00;43.60;;;;;;4936902;29;20443;-86
2022/03/21 09:25:39;;;;;;;4.40;4.10;;;28.00;43.70;;;;;;4937252;29;20446;-85
2022/03/21 09:28:05;;;;;;;3.50;3.30;;;28.10;43.60;;;;;;4937227;29;20443;-91
2022/03/21 09:30:33;;;;;;;2.97;2.77;;;28.10;43.70;;;;;;4937987;29;20553;-85
2022/03/21 09:33:00;;;;;;;3.77;3.50;;;28.20;43.70;;;;;;4937952;29;20466;-85
2022/03/21 09:35:27;;;;;;;3.40;3.20;;;28.20;43.60;;;;;;4937545;29;20513;-85
2022/03/21 09:37:55;;;;;;;3.40;3.20;;;28.20;43.50;;;;;;4937094;29;20455;-88
2022/03/21 09:43:44;;;;;;;4.50;4.20;;;28.30;42.10;;;;;;4942003;29;20407;-89
2022/03/21 09:46:12;;;;;;;4.47;4.13;;;28.10;41.80;;;;;;4939048;29;20462;-90
2022/03/21 09:48:39;;;;;;;4.40;4.10;;;28.10;41.90;;;;;;4938826;28;20511;-88
2022/03/21 09:51:06;;;;;;;4.40;4.10;;;28.20;42.00;;;;;;4975833;28;20776;-86
2022/03/21 09:53:34;;;;;;;3.43;3.13;;;28.00;42.30;;;;;;4975664;28;20452;-87
2022/03/21 09:56:01;;;;;;;3.50;3.30;;;28.00;43.00;;;;;;4975687;28;20444;-86
2022/03/21 09:58:30;;;;;;;4.33;3.93;;;28.20;43.30;;;;;;4975550;28;20452;-86
2022/03/21 10:00:56;;;;;;;4.93;4.60;;;28.10;42.40;;;;;;4975293;28;20445;-86
2022/03/21 10:03:23;;;;;;;5.80;5.20;;;28.10;42.30;;;;;;4975376;28;20449;-86
2022/03/21 10:05:50;;;;;;;9.60;5.80;;;28.00;42.00;;;;;;4975086;28;20933;-86
2022/03/21 10:08:20;;;;;;;6.07;5.57;;;28.00;42.00;;;;;;4975253;28;20460;-85
2022/03/21 10:10:59;;;;;;;6.30;5.77;;;28.00;42.10;;;;;;4975564;28;20508;-86
2022/03/21 10:13:29;;;;;;;6.70;5.20;;;28.00;42.00;;;;;;4975574;28;20533;-85
2022/03/21 10:16:08;;;;;;;6.43;5.93;;;27.90;42.00;;;;;;4975748;28;20543;-86
2022/03/21 10:18:38;;;;;;;6.57;5.97;;;27.90;41.90;;;;;;4975442;28;20434;-86
2022/03/21 10:21:12;;;;;;;7.00;6.30;;;27.80;42.00;;;;;;4975363;28;20452;-87
2022/03/21 10:23:39;;;;;;;7.00;6.50;;;27.90;42.00;;;;;;4974945;28;20449;-85
2022/03/21 10:26:26;;;;;;;7.00;6.40;;;27.80;41.90;;;;;;4975309;28;20449;-85
2022/03/21 10:28:55;;;;;;;7.07;6.40;;;27.90;41.90;;;;;;4974634;28;20912;-85
2022/03/21 10:31:39;;;;;;;6.97;6.37;;;27.80;42.20;;;;;;4974740;28;20834;-79
2022/03/21 10:34:08;;;;;;;7.33;6.63;;;27.80;42.10;;;;;;4975215;28;20469;-81
2022/03/21 10:36:37;;;;;;;7.10;6.53;;;27.70;42.10;;;;;;4975257;28;20457;-84
2022/03/21 10:39:12;;;;;;;7.43;6.83;;;27.70;42.20;;;;;;4974784;28;20452;-88
2022/03/21 10:41:40;;;;;;;9.47;7.57;;;27.70;42.20;;;;;;4975311;28;20487;-89
2022/03/21 10:44:09;;;;;;;12.03;9.17;;;27.70;42.00;;;;;;4974814;28;20464;-89
2022/03/21 10:46:36;;;;;;;8.23;7.50;;;27.70;42.10;;;;;;4975013;28;20461;-86
2022/03/21 10:49:05;;;;;;;7.90;6.70;;;27.70;42.00;;;;;;4974930;28;20821;-87
2022/03/21 10:51:48;;;;;;;8.20;7.40;;;27.70;42.60;;;;;;4975560;28;20452;-87
2022/03/21 10:54:39;;;;;;;8.70;7.80;;;27.80;42.10;;;;;;4974828;28;20473;-87
2022/03/21 10:57:25;;;;;;;9.53;8.10;;;27.80;42.00;;;;;;4974969;28;20449;-89
2022/03/21 10:59:52;;;;;;;8.47;7.67;;;27.80;42.10;;;;;;4975753;28;20794;-87
2022/03/21 11:02:19;;;;;;;7.67;6.97;;;27.80;42.10;;;;;;4975327;28;20486;-87
2022/03/21 11:04:46;;;;;;;7.20;6.50;;;27.90;42.20;;;;;;4974733;28;20461;-80
2022/03/21 11:07:13;;;;;;;7.03;5.93;;;27.80;42.20;;;;;;4975854;28;20940;-87
2022/03/21 11:09:41;;;;;;;11.33;8.37;;;27.80;42.10;;;;;;4979336;28;20453;-88
2022/03/21 11:12:12;;;;;;;8.10;6.93;;;27.80;42.20;;;;;;4957233;28;20446;-90
2022/03/21 11:14:40;;;;;;;7.33;6.63;;;27.80;42.30;;;;;;4975526;28;20481;-91
2022/03/21 11:17:08;;;;;;;6.57;5.97;;;28.00;42.40;;;;;;4977553;28;21003;-89
2022/03/21 11:19:36;;;;;;;10.27;6.73;;;27.90;42.40;;;;;;4979177;28;20457;-87
2022/03/21 11:22:04;;;;;;;11.43;7.33;;;28.10;42.50;;;;;;4979082;28;20452;-87
2022/03/21 11:24:34;;;;;;;7.60;6.77;;;28.00;42.50;;;;;;4980140;28;20445;-90
2022/03/21 11:27:21;;;;;;;8.43;7.30;;;28.10;42.50;;;;;;4979052;28;20477;-86
2022/03/21 11:30:00;;;;;;;7.90;5.70;;;28.00;42.60;;;;;;4978556;28;20436;-89
2022/03/21 11:32:39;;;;;;;7.13;6.43;;;28.00;42.50;;;;;;4978046;28;20437;-87
2022/03/21 11:35:11;;;;;;;7.37;6.40;;;28.10;42.70;;;;;;4977817;28;20500;-86
2022/03/21 11:37:38;;;;;;;7.33;6.60;;;28.00;42.70;;;;;;4978274;28;20441;-92
2022/03/21 11:40:24;;;;;;;9.40;7.07;;;28.30;42.80;;;;;;4977725;28;20963;-92
2022/03/21 11:42:54;;;;;;;7.07;6.47;;;28.10;42.60;;;;;;4978126;28;20442;-87
2022/03/21 11:45:23;;;;;;;7.10;6.50;;;28.20;42.80;;;;;;4978790;28;20851;-87
2022/03/21 11:47:50;;;;;;;6.50;5.60;;;28.10;42.80;;;;;;4978502;28;20488;-91
2022/03/21 11:50:28;;;;;;;6.40;5.80;;;28.30;42.80;;;;;;4977957;28;20473;-82
2022/03/21 11:53:08;;;;;;;5.47;5.07;;;28.10;42.50;;;;;;4977728;28;20785;-82
2022/03/21 11:55:40;;;;;;;5.70;5.20;;;28.00;42.20;;;;;;4977408;28;20485;-83
2022/03/21 11:58:46;;;;;;;6.20;5.70;;;27.90;42.30;;;;;;4977986;28;20453;-88
2022/03/21 12:01:14;;;;;;;6.00;5.57;;;27.80;42.60;;;;;;4977674;28;20457;-88
2022/03/21 12:03:43;;;;;;;8.43;5.80;;;27.80;43.00;;;;;;4977389;28;20456;-88
2022/03/21 12:06:24;;;;;;;6.13;5.43;;;28.00;43.10;;;;;;4977573;28;20488;-87
2022/03/21 12:08:52;;;;;;;7.67;7.07;;;28.00;43.10;;;;;;4977418;28;20999;-87
2022/03/21 12:12:02;;;;;;;6.30;5.80;;;27.90;42.80;;;;;;4977660;28;20595;-87
2022/03/21 12:14:36;;;;;;;9.17;5.13;;;28.10;42.90;;;;;;4977860;28;20551;-87
2022/03/21 12:17:30;;;;;;;6.23;5.63;;;28.10;43.10;;;;;;4977261;28;20437;-88
2022/03/21 12:23:21;;;;;;;6.27;5.57;;;28.00;43.20;;;;;;4976998;28;20406;-92
2022/03/21 12:25:50;;;;;;;6.60;6.00;;;28.00;43.10;;;;;;4977430;28;20834;-91
2022/03/21 12:31:23;;;;;;;8.57;6.20;;;28.00;43.10;;;;;;4977594;28;20445;-86
2022/03/21 12:33:50;;;;;;;7.97;7.20;;;28.10;43.20;;;;;;4979210;28;20767;-87
2022/03/21 12:36:31;;;;;;;6.37;5.77;;;28.00;43.10;;;;;;4977196;28;20850;-86
2022/03/21 12:38:58;;;;;;;5.80;5.30;;;28.00;43.20;;;;;;4977153;28;20441;-85
2022/03/21 12:41:33;;;;;;;5.93;5.53;;;28.00;43.30;;;;;;4977100;28;20445;-85
2022/03/21 12:44:00;;;;;;;6.93;6.33;;;28.10;43.40;;;;;;4960005;28;20437;-86
2022/03/21 12:46:28;;;;;;;6.60;6.00;;;28.20;43.50;;;;;;4976725;28;20445;-85
2022/03/21 12:48:58;;;;;;;5.87;5.37;;;28.10;43.40;;;;;;4977457;28;20519;-85
2022/03/21 12:51:28;;;;;;;7.07;5.67;;;28.10;43.30;;;;;;4977183;28;20445;-85
2022/03/21 12:53:57;;;;;;;5.17;4.73;;;28.20;43.40;;;;;;4976981;28;20448;-85
2022/03/21 12:56:26;;;;;;;6.33;5.63;;;28.10;43.30;;;;;;4976732;28;20496;-87
2022/03/21 12:58:58;;;;;;;10.00;6.10;;;28.10;43.30;;;;;;4976892;28;20445;-91
2022/03/21 13:01:26;;;;;;;6.00;5.40;;;28.20;43.40;;;;;;4977149;28;20520;-95
2022/03/21 13:10:32;;;;;;;5.87;4.80;;;28.30;43.50;;;;;;4976357;28;20441;-87
2022/03/21 13:12:34;;;;;;;5.77;5.20;;;28.00;43.40;;;;;;4977121;28;20401;-87
2022/03/21 13:15:02;;;;;;;8.77;5.30;;;28.00;43.50;;;;;;4977070;28;20488;-87
2022/03/21 13:17:57;;;;;;;5.00;4.60;;;28.00;43.50;;;;;;4976357;28;20451;-86
2022/03/21 13:20:29;;;;;;;5.10;4.70;;;27.90;43.00;;;;;;4976027;28;20783;-79
2022/03/21 13:22:57;;;;;;;5.20;4.70;;;27.80;43.10;;;;;;4975749;28;20928;-79
2022/03/21 13:25:27;;;;;;;5.63;4.70;;;27.70;43.30;;;;;;4975873;28;20453;-79
2022/03/21 13:28:06;;;;;;;4.63;4.10;;;27.70;43.40;;;;;;4976366;28;20452;-78
2022/03/21 13:30:32;;;;;;;4.77;4.37;;;27.60;43.40;;;;;;4975812;28;20524;-79
2022/03/21 13:32:59;;;;;;;4.80;4.40;;;27.60;43.50;;;;;;4975765;28;20460;-92
2022/03/21 13:35:28;;;;;;;4.20;3.80;;;27.50;43.50;;;;;;4976153;28;20484;-91
2022/03/21 13:38:02;;;;;;;5.13;4.30;;;27.40;43.50;;;;;;4975390;28;20447;-90
2022/03/21 13:40:29;;;;;;;4.30;4.00;;;27.40;43.50;;;;;;4975497;28;20963;-88
2022/03/21 13:42:56;;;;;;;4.83;4.13;;;27.40;43.60;;;;;;4975658;28;20456;-79
2022/03/21 13:45:24;;;;;;;4.57;4.27;;;27.40;43.80;;;;;;4975540;28;20458;-79
2022/03/21 13:47:53;;;;;;;4.33;4.03;;;27.30;43.70;;;;;;4975906;28;20932;-79
2022/03/21 13:50:33;;;;;;;6.10;4.67;;;27.30;43.70;;;;;;4975503;28;20513;-79
2022/03/21 13:53:01;;;;;;;4.47;4.07;;;27.30;43.80;;;;;;4976020;28;20504;-85
2022/03/21 13:55:41;;;;;;;9.73;4.90;;;27.30;43.90;;;;;;4976292;28;20522;-78
2022/03/21 13:58:09;;;;;;;4.70;4.30;;;27.30;43.90;;;;;;4977075;28;20425;-85
2022/03/21 14:00:37;;;;;;;4.00;3.70;;;27.20;44.00;;;;;;4975714;28;20457;-82
2022/03/21 14:03:06;;;;;;;5.53;4.20;;;27.20;44.10;;;;;;4975897;28;20440;-86